createdAt,value
2022-10-04T00:01:40.884Z,90.23
2022-10-04T00:06:53.950Z,89.75
2022-10-04T00:11:57.294Z,91.22
2022-10-04T00:17:00.129Z,89.64
2022-10-04T00:22:07.495Z,91.28
2022-10-04T00:27:27.039Z,90.79
2022-10-04T00:32:40.548Z,90.27
2022-10-04T00:38:14.993Z,88.37
2022-10-04T00:43:31.206Z,88.05
2022-10-04T00:48:41.669Z,88.12
2022-10-04T00:54:05.966Z,88.82
2022-10-04T00:59:22.647Z,87.83
2022-10-04T01:04:39.926Z,89.43
2022-10-04T01:09:53.458Z,89.37
2022-10-04T01:15:30.008Z,89.92
2022-10-04T01:20:48.789Z,88.78
2022-10-04T01:25:51.160Z,90.61
2022-10-04T01:30:53.513Z,91.03
2022-10-04T01:35:55.219Z,93.25
2022-10-04T01:41:03.103Z,92.69
2022-10-04T01:46:11.297Z,91.00
2022-10-04T01:51:30.291Z,92.11
2022-10-04T01:56:43.911Z,92.13
2022-10-04T02:01:52.650Z,91.54
2022-10-04T02:06:57.061Z,90.63
2022-10-04T02:11:59.704Z,92.66
2022-10-04T02:17:05.585Z,92.93
2022-10-04T02:22:10.827Z,93.35
2022-10-04T02:27:13.226Z,93.19
2022-10-04T02:32:33.553Z,94.63
2022-10-04T02:37:38.209Z,93.70
2022-10-04T02:43:03.782Z,94.22
2022-10-04T02:48:31.804Z,95.62
2022-10-04T02:53:52.190Z,95.07
2022-10-04T02:58:54.699Z,95.23
2022-10-04T03:03:58.299Z,95.20
2022-10-04T03:09:03.678Z,95.27
2022-10-04T03:14:10.400Z,95.59
2022-10-04T03:19:15.737Z,94.22
2022-10-04T03:24:25.153Z,95.24
2022-10-04T03:29:32.004Z,95.33
2022-10-04T03:34:37.103Z,95.13
2022-10-04T03:39:43.300Z,96.50
2022-10-04T03:44:46.838Z,96.08
2022-10-04T03:49:51.008Z,96.09
2022-10-04T03:54:55.832Z,95.74
2022-10-04T03:59:59.291Z,96.48
2022-10-04T04:05:11.267Z,96.36
2022-10-04T04:10:27.576Z,95.99
2022-10-04T04:15:32.759Z,96.43
2022-10-04T04:20:36.841Z,96.44
2022-10-04T04:25:42.076Z,95.63
2022-10-04T04:30:51.567Z,96.27
2022-10-04T04:35:56.308Z,95.76
2022-10-04T04:41:08.540Z,96.32
2022-10-04T04:46:26.536Z,96.26
2022-10-04T04:51:31.660Z,96.88
2022-10-04T04:56:34.924Z,96.97
2022-10-04T05:01:48.038Z,97.23
2022-10-04T05:07:17.151Z,97.44
2022-10-04T05:12:23.660Z,96.42
2022-10-04T05:17:29.849Z,96.56
2022-10-04T05:22:32.890Z,97.34
2022-10-04T05:27:40.777Z,95.79
2022-10-04T05:33:04.925Z,96.08
2022-10-04T05:38:10.696Z,94.74
2022-10-04T05:43:26.833Z,95.17
2022-10-04T05:48:28.626Z,94.84
2022-10-04T05:53:31.319Z,95.01
2022-10-04T05:58:48.267Z,94.50
2022-10-04T06:04:16.537Z,92.80
2022-10-04T06:09:18.018Z,92.86
2022-10-04T06:14:44.450Z,92.98
2022-10-04T06:20:20.710Z,92.74
2022-10-04T06:25:38.317Z,93.20
2022-10-04T06:31:07.914Z,92.51
2022-10-04T06:36:34.286Z,92.38
2022-10-04T06:41:49.056Z,91.68
2022-10-04T06:46:58.543Z,90.82
2022-10-04T06:52:23.448Z,90.46
2022-10-04T06:57:37.103Z,88.75
2022-10-04T07:03:03.018Z,87.23
2022-10-04T07:08:34.061Z,87.41
2022-10-04T07:13:56.565Z,85.92
2022-10-04T07:19:19.316Z,83.65
2022-10-04T07:24:27.741Z,84.45
2022-10-04T07:29:39.923Z,83.60
2022-10-04T07:34:46.038Z,81.79
2022-10-04T07:39:52.812Z,82.33
2022-10-04T07:45:21.452Z,81.16
2022-10-04T07:50:30.353Z,78.76
2022-10-04T07:55:55.373Z,78.57
2022-10-04T08:01:15.271Z,77.12
2022-10-04T08:06:26.203Z,77.11
2022-10-04T08:11:41.425Z,76.35
2022-10-04T08:17:17.788Z,77.14
2022-10-04T08:22:26.863Z,75.08
2022-10-04T08:28:03.138Z,72.53
2022-10-04T08:33:26.318Z,71.25
2022-10-04T08:38:48.010Z,72.78
2022-10-04T08:44:05.723Z,73.61
2022-10-04T08:49:39.798Z,72.26
2022-10-04T08:55:11.866Z,73.23
2022-10-04T09:00:32.060Z,72.65
2022-10-04T09:05:45.557Z,70.52
2022-10-04T09:11:31.831Z,68.80
2022-10-04T09:17:01.732Z,69.10
2022-10-04T09:22:17.377Z,69.90
2022-10-04T09:27:55.412Z,70.75
2022-10-04T09:33:00.266Z,68.92
2022-10-04T09:38:29.168Z,69.91
2022-10-04T09:44:00.413Z,70.11
2022-10-04T09:49:13.629Z,68.29
2022-10-04T09:54:33.588Z,67.63
2022-10-04T09:59:43.836Z,67.23
2022-10-04T10:05:11.284Z,66.04
2022-10-04T10:11:04.183Z,65.75
2022-10-04T10:16:29.839Z,64.50
2022-10-04T10:22:02.269Z,65.37
2022-10-04T10:27:31.586Z,67.13
2022-10-04T10:32:39.331Z,68.08
2022-10-04T10:37:49.629Z,65.30
2022-10-04T10:42:59.890Z,62.03
2022-10-04T10:48:29.787Z,63.05
2022-10-04T10:53:59.040Z,63.13
2022-10-04T10:59:33.258Z,64.33
2022-10-04T11:04:56.390Z,64.46
2022-10-04T11:10:32.362Z,58.71
2022-10-04T11:16:11.495Z,59.03
2022-10-04T11:22:07.383Z,60.02
2022-10-04T11:27:28.789Z,60.93
2022-10-04T11:32:45.653Z,59.90
2022-10-04T11:38:04.921Z,57.54
2022-10-04T11:43:17.567Z,57.91
2022-10-04T11:48:22.042Z,59.29
2022-10-04T11:53:55.586Z,58.60
2022-10-04T11:59:17.751Z,58.28
2022-10-04T12:04:41.342Z,57.16
2022-10-04T12:10:03.408Z,54.11
2022-10-04T12:15:32.881Z,55.17
2022-10-04T12:21:12.613Z,56.09
2022-10-04T12:26:32.992Z,56.69
2022-10-04T12:31:36.276Z,56.05
2022-10-04T12:36:53.040Z,58.06
2022-10-04T12:42:09.497Z,58.58
2022-10-04T12:47:29.077Z,57.51
2022-10-04T12:52:43.960Z,58.10
2022-10-04T12:57:58.249Z,58.03
2022-10-04T13:03:22.727Z,59.07
2022-10-04T13:08:37.908Z,56.94
2022-10-04T13:13:42.130Z,54.75
2022-10-04T13:19:10.636Z,55.46
2022-10-04T13:24:55.646Z,56.61
2022-10-04T13:30:13.376Z,57.54
2022-10-04T13:35:23.858Z,57.24
2022-10-04T13:40:54.903Z,55.89
2022-10-04T13:46:20.066Z,56.34
2022-10-04T13:51:28.685Z,56.36
2022-10-04T13:56:57.699Z,54.87
2022-10-04T14:02:41.044Z,55.81
2022-10-04T14:07:57.785Z,56.77
2022-10-04T14:13:27.070Z,56.54
2022-10-04T14:18:40.508Z,55.11
2022-10-04T14:23:44.553Z,55.46
2022-10-04T14:28:59.068Z,54.29
2022-10-04T14:34:37.571Z,55.95
2022-10-04T14:40:08.687Z,57.00
2022-10-04T14:45:35.286Z,57.57
2022-10-04T14:51:16.428Z,57.32
2022-10-04T14:56:43.886Z,57.66
2022-10-04T15:02:00.599Z,58.27
2022-10-04T15:07:16.785Z,59.72
2022-10-04T15:18:46.133Z,60.69
2022-10-04T15:23:54.976Z,61.58
2022-10-04T15:29:25.660Z,61.75
2022-10-04T15:34:35.468Z,62.12
2022-10-04T15:39:47.385Z,63.03
2022-10-04T15:45:15.988Z,63.48
2022-10-04T15:50:32.583Z,64.46
2022-10-04T15:55:38.050Z,64.70
2022-10-04T16:01:05.258Z,65.51
2022-10-04T16:06:21.692Z,65.96
2022-10-04T16:11:32.297Z,66.69
2022-10-04T16:17:09.809Z,67.59
2022-10-04T16:22:19.013Z,69.63
2022-10-04T16:27:46.219Z,68.81
2022-10-04T16:32:56.607Z,69.55
2022-10-04T16:38:14.417Z,70.10
2022-10-04T16:43:15.936Z,70.63
2022-10-04T16:48:23.634Z,71.11
2022-10-04T16:53:59.581Z,71.99
2022-10-04T16:59:10.922Z,72.31
2022-10-04T17:04:38.776Z,72.97
2022-10-04T17:09:48.971Z,73.33
2022-10-04T17:15:21.073Z,73.95
2022-10-04T17:20:25.800Z,74.66
2022-10-04T17:25:53.048Z,75.59
2022-10-04T17:31:08.658Z,76.07
2022-10-04T17:36:33.190Z,76.46
2022-10-04T17:41:43.506Z,76.97
2022-10-04T17:47:23.847Z,77.51
2022-10-04T17:52:52.775Z,77.83
2022-10-04T17:58:02.804Z,78.21
2022-10-04T18:03:12.344Z,78.35
2022-10-04T18:08:33.781Z,78.66
2022-10-04T18:13:49.438Z,79.00
2022-10-04T18:18:51.144Z,79.41
2022-10-04T18:24:16.998Z,79.57
2022-10-04T18:29:37.133Z,80.08
2022-10-04T18:34:38.817Z,80.03
2022-10-04T18:39:55.403Z,80.54
2022-10-04T18:45:05.430Z,80.34
2022-10-04T18:50:20.882Z,80.51
2022-10-04T18:56:13.172Z,81.00
2022-10-04T19:01:57.646Z,81.28
2022-10-04T19:07:30.343Z,81.42
2022-10-04T19:12:41.133Z,81.51
2022-10-04T19:18:00.839Z,81.31
2022-10-04T19:23:33.301Z,81.53
2022-10-04T19:28:37.679Z,81.55
2022-10-04T19:33:53.668Z,81.55
2022-10-04T19:39:22.927Z,82.05
2022-10-04T19:45:01.884Z,82.07
2022-10-04T19:50:10.421Z,82.14
2022-10-04T19:55:42.820Z,82.08
2022-10-04T20:00:44.642Z,82.23
2022-10-04T20:05:48.711Z,81.98
2022-10-04T20:10:50.297Z,82.16
2022-10-04T20:16:00.597Z,82.36
2022-10-04T20:21:09.708Z,82.28
2022-10-04T20:26:53.767Z,82.36
2022-10-04T20:31:56.308Z,82.36
2022-10-04T20:36:57.899Z,82.72
2022-10-04T20:42:29.896Z,83.45
2022-10-04T20:47:43.961Z,83.80
2022-10-04T20:52:48.498Z,84.15
2022-10-04T20:57:50.072Z,83.98
2022-10-04T21:03:08.314Z,84.13
2022-10-04T21:08:14.845Z,83.84
2022-10-04T21:13:42.286Z,84.15
2022-10-04T21:18:43.828Z,84.04
2022-10-04T21:23:45.357Z,84.77
2022-10-04T21:28:48.308Z,85.14
2022-10-04T21:33:49.980Z,85.54
2022-10-04T21:38:54.242Z,85.76
2022-10-04T21:43:55.832Z,85.65
2022-10-04T21:48:57.376Z,85.78
2022-10-04T21:53:59.462Z,85.86
2022-10-04T21:59:01.126Z,85.67
2022-10-04T22:04:02.901Z,85.25
2022-10-04T22:09:05.257Z,85.15
2022-10-04T22:14:06.788Z,85.67
2022-10-04T22:19:08.348Z,85.82
2022-10-04T22:24:17.507Z,86.21
2022-10-04T22:29:19.074Z,86.41
2022-10-04T22:34:22.887Z,86.35
2022-10-04T22:39:25.078Z,86.21
2022-10-04T22:44:34.535Z,86.68
2022-10-04T22:49:38.804Z,87.11
2022-10-04T22:54:44.597Z,86.62
2022-10-04T22:59:51.469Z,86.83
2022-10-04T23:05:09.849Z,86.98
2022-10-04T23:10:13.993Z,86.90
2022-10-04T23:15:17.918Z,87.22
2022-10-04T23:20:20.584Z,87.27
2022-10-04T23:25:29.154Z,87.59
2022-10-04T23:30:30.981Z,87.97
2022-10-04T23:35:34.105Z,88.12
2022-10-04T23:40:35.699Z,87.80
2022-10-04T23:45:42.051Z,87.53
2022-10-04T23:50:43.877Z,89.29
2022-10-04T23:55:46.151Z,90.72
